Wakaw, Canada
Current Conditions -  °F | °C
As of 11:00 AM on Saturday 20 Dec 2014 (Local Time) from CYPA Reporting Station
Light Snow Light Snow  
Wind Chill:   Ceiling: 400
Heat Index: 18°   Visibility: 6mi
Dew Point: 16°   Wind: 8mph
Humidity: 93%   Direction: 110°ESE
Pressure: 29.77"   Gusts: NA
Location:  52.65°N, 105.73°W
Report Text: CYPA 201700Z 11007KT 6SM -SN BR OVC004 M08/M09 A2977 RMK ST8 SLP112
Loading
Personal Weather Stations






























Interactive Weather Map New forecast layout! Learn more

10-Day Weather Forecast

Advertisements
Track Severe Weather on mobile